Few Clouds Current Weather (METAR) For Antalya Airport

All times on the weather descriptions are local

Observed at 23:50 - (11 mins ago)

Few Clouds

15°C

Few Clouds
Clouds: Few Clouds at 3,000ft
Wind: 310° at 06 knots
Visibility: Greater than 10km
QNH: 1013
Dew Point: 7°C
Runway in Use: Likely Runways 36L/C/R

Sunrise Today: 06:18
Sunset Today: 17:01

Forecast Weather (TAF) For Antalya Airport

Issued at 02:00 - (22 hrs 1 min ago)


Runway in Use: Unable to determine, wind is clam

Forecast valid until 02:00 on Friday

METAR/TAF RAW METAR / TAF

LTAI 312150Z 31006KT 9999 FEW030 15/07 Q1013 NOSIG

Weather Widget

Put weather from any of our airports on your website with our weather widget.

Find Another Search

Airport Search


Please Wait Please Wait - Loading
Close
Close

Login

Username:

Password:

Remember Me:

Remember me on this computer

Forgotten your password? Get a reset password sent to your registered e-mail address

Close

User Private Message

Subject:

Message: